createdAt,value
2017-12-28T00:00:31.433Z,0.00
2017-12-28T00:01:31.461Z,0.00
2017-12-28T00:02:31.494Z,0.00
2017-12-28T00:03:31.524Z,0.00
2017-12-28T00:04:31.566Z,0.00
2017-12-28T00:05:31.587Z,0.00
2017-12-28T00:06:31.754Z,0.00
2017-12-28T00:07:31.663Z,0.00
2017-12-28T00:08:31.684Z,0.00
2017-12-28T00:09:31.715Z,0.00
2017-12-28T00:10:31.749Z,0.00
2017-12-28T00:11:31.782Z,0.00
2017-12-28T00:12:31.812Z,0.00
2017-12-28T00:13:31.909Z,0.00
2017-12-28T00:14:31.876Z,0.00
2017-12-28T00:15:31.909Z,0.00
2017-12-28T00:16:31.944Z,0.00
2017-12-28T00:17:31.973Z,0.00
2017-12-28T00:18:32.005Z,0.00
2017-12-28T00:19:32.037Z,0.00
2017-12-28T00:20:32.071Z,0.00
2017-12-28T00:21:32.106Z,0.00
2017-12-28T00:22:32.134Z,0.00
2017-12-28T00:23:32.164Z,0.00
2017-12-28T00:24:32.197Z,0.00
2017-12-28T00:25:32.233Z,0.00
2017-12-28T00:26:32.264Z,0.00
2017-12-28T00:27:32.306Z,0.00
2017-12-28T00:28:32.324Z,0.00
2017-12-28T00:29:32.357Z,0.00
2017-12-28T00:30:32.396Z,0.00
2017-12-28T00:31:32.420Z,0.00
2017-12-28T00:32:32.455Z,0.00
2017-12-28T00:33:32.485Z,0.00
2017-12-28T00:34:32.516Z,0.00
2017-12-28T00:35:32.549Z,0.00
2017-12-28T00:36:32.581Z,0.00
2017-12-28T00:37:32.951Z,0.00
2017-12-28T00:38:32.645Z,0.00
2017-12-28T00:39:32.678Z,0.00
2017-12-28T00:40:32.720Z,0.00
2017-12-28T00:41:32.741Z,0.00
2017-12-28T00:42:32.776Z,0.00
2017-12-28T00:43:32.821Z,0.00
2017-12-28T00:44:32.839Z,0.00
2017-12-28T00:45:32.869Z,0.00
2017-12-28T00:46:32.901Z,0.00
2017-12-28T00:47:32.936Z,0.00
2017-12-28T00:48:32.966Z,0.00
2017-12-28T00:49:32.998Z,0.00
2017-12-28T00:50:33.032Z,0.00
2017-12-28T00:51:33.063Z,0.00
2017-12-28T00:52:33.097Z,0.00
2017-12-28T00:53:33.126Z,0.00
2017-12-28T00:54:33.158Z,0.00
2017-12-28T00:55:33.189Z,0.00
2017-12-28T00:56:33.312Z,0.00
2017-12-28T00:57:33.257Z,0.00
2017-12-28T00:58:33.292Z,0.00
2017-12-28T00:59:33.325Z,0.00
2017-12-28T01:00:33.352Z,0.00
2017-12-28T01:01:33.383Z,0.00
2017-12-28T01:02:33.418Z,0.00
2017-12-28T01:03:33.449Z,0.00
2017-12-28T01:04:33.477Z,0.00
2017-12-28T01:05:33.511Z,0.00
2017-12-28T01:06:33.544Z,0.00
2017-12-28T01:07:33.579Z,0.00
2017-12-28T01:08:33.609Z,0.00
2017-12-28T01:09:33.639Z,0.00
2017-12-28T01:10:33.671Z,0.00
2017-12-28T01:11:33.709Z,0.00
2017-12-28T01:12:33.739Z,0.00
2017-12-28T01:13:33.820Z,0.00
2017-12-28T01:14:33.800Z,0.00
2017-12-28T01:15:33.835Z,0.00
2017-12-28T01:16:33.886Z,0.00
2017-12-28T01:17:33.912Z,0.00
2017-12-28T01:18:34.258Z,0.00
2017-12-28T01:19:33.964Z,0.00
2017-12-28T01:20:34.099Z,0.00
2017-12-28T01:21:34.025Z,0.00
2017-12-28T01:22:34.056Z,0.00
2017-12-28T01:23:34.095Z,0.00
2017-12-28T01:24:34.123Z,0.00
2017-12-28T01:25:34.152Z,0.00
2017-12-28T01:26:34.187Z,0.00
2017-12-28T01:27:34.221Z,0.00
2017-12-28T01:28:34.250Z,0.00
2017-12-28T01:29:34.283Z,0.00
2017-12-28T01:30:34.316Z,0.00
2017-12-28T01:31:34.347Z,0.00
2017-12-28T01:32:34.382Z,0.00
2017-12-28T01:33:34.412Z,0.00
2017-12-28T01:34:34.441Z,0.00
2017-12-28T01:35:34.474Z,0.00
2017-12-28T01:36:34.818Z,0.00
2017-12-28T01:37:34.538Z,0.00
2017-12-28T01:38:34.573Z,0.00
2017-12-28T01:39:34.602Z,0.00
2017-12-28T01:40:34.635Z,0.00
2017-12-28T01:41:34.665Z,0.00
2017-12-28T01:42:34.697Z,0.00
2017-12-28T01:43:34.733Z,0.00
2017-12-28T01:44:34.763Z,0.00
2017-12-28T01:45:34.793Z,0.00
2017-12-28T01:46:34.826Z,0.00
2017-12-28T01:47:34.859Z,0.00
2017-12-28T01:48:34.888Z,0.00
2017-12-28T01:49:34.923Z,0.00
2017-12-28T01:50:34.953Z,0.00
2017-12-28T01:51:34.992Z,0.00
2017-12-28T01:52:35.016Z,0.00
2017-12-28T01:53:35.049Z,0.00
2017-12-28T01:54:35.084Z,0.00
2017-12-28T01:55:35.111Z,0.00
2017-12-28T01:56:35.144Z,0.00
2017-12-28T01:57:35.189Z,0.00
2017-12-28T01:58:35.207Z,0.00
2017-12-28T01:59:35.240Z,0.00
2017-12-28T02:00:35.273Z,0.00
2017-12-28T02:01:35.306Z,0.00
2017-12-28T02:02:35.337Z,0.00
2017-12-28T02:03:35.369Z,0.00
2017-12-28T02:04:35.400Z,0.00
2017-12-28T02:05:35.435Z,0.00
2017-12-28T02:06:35.465Z,0.00
2017-12-28T02:07:35.495Z,0.00
2017-12-28T02:08:35.528Z,0.00
2017-12-28T02:09:35.561Z,0.00
2017-12-28T02:10:35.652Z,0.00
2017-12-28T02:11:35.629Z,0.00
2017-12-28T02:12:35.656Z,0.00
2017-12-28T02:13:35.688Z,0.00
2017-12-28T02:14:35.720Z,0.00
2017-12-28T02:15:35.750Z,0.00
2017-12-28T02:16:35.787Z,0.00
2017-12-28T02:17:36.171Z,0.00
2017-12-28T02:18:35.850Z,0.00
2017-12-28T02:19:35.880Z,0.00
2017-12-28T02:20:35.912Z,0.00
2017-12-28T02:21:35.947Z,0.00
2017-12-28T02:22:35.978Z,0.00
2017-12-28T02:23:36.008Z,0.00
2017-12-28T02:24:36.040Z,0.00
2017-12-28T02:25:36.071Z,0.00
2017-12-28T02:26:36.107Z,0.00
2017-12-28T02:27:36.190Z,0.00
2017-12-28T02:28:36.168Z,0.00
2017-12-28T02:29:36.200Z,0.00
2017-12-28T02:30:36.231Z,0.00
2017-12-28T02:31:36.262Z,0.00
2017-12-28T02:32:36.298Z,0.00
2017-12-28T02:33:36.327Z,0.00
2017-12-28T02:34:36.413Z,0.00
2017-12-28T02:35:36.392Z,0.00
2017-12-28T02:36:36.422Z,0.00
2017-12-28T02:37:36.453Z,0.00
2017-12-28T02:38:36.485Z,0.00
2017-12-28T02:39:36.536Z,0.00
2017-12-28T02:40:36.558Z,0.00
2017-12-28T02:41:36.582Z,0.00
2017-12-28T02:42:36.615Z,0.00
2017-12-28T02:43:36.651Z,0.00
2017-12-28T02:44:36.679Z,0.00
2017-12-28T02:45:36.712Z,0.00
2017-12-28T02:46:36.746Z,0.00
2017-12-28T02:47:36.776Z,0.00
2017-12-28T02:48:36.810Z,0.00
2017-12-28T02:49:36.841Z,0.00
2017-12-28T02:50:36.871Z,0.00
2017-12-28T02:51:36.903Z,0.00
2017-12-28T02:52:36.937Z,0.00
2017-12-28T02:53:37.014Z,0.00
2017-12-28T02:54:37.004Z,0.00
2017-12-28T02:55:37.032Z,0.00
2017-12-28T02:56:37.076Z,0.00
2017-12-28T02:57:37.095Z,0.00
2017-12-28T02:58:37.142Z,0.00
2017-12-28T02:59:37.161Z,0.00
2017-12-28T03:00:37.277Z,0.00
2017-12-28T03:01:37.223Z,0.00
2017-12-28T03:02:37.256Z,0.00
2017-12-28T03:03:37.287Z,0.00
2017-12-28T03:04:37.332Z,0.00
2017-12-28T03:05:37.352Z,0.00
2017-12-28T03:06:37.384Z,0.00
2017-12-28T03:07:37.438Z,0.00
2017-12-28T03:08:37.447Z,0.00
2017-12-28T03:09:37.482Z,0.00
2017-12-28T03:10:37.513Z,0.00
2017-12-28T03:11:37.558Z,0.00
2017-12-28T03:12:37.576Z,0.00
2017-12-28T03:13:37.608Z,0.00
2017-12-28T03:14:37.644Z,0.00
2017-12-28T03:15:37.676Z,0.00
2017-12-28T03:16:37.707Z,0.00
2017-12-28T03:17:37.843Z,0.00
2017-12-28T03:18:37.773Z,0.00
2017-12-28T03:19:37.803Z,0.00
2017-12-28T03:20:37.836Z,0.00
2017-12-28T03:21:37.866Z,0.00
2017-12-28T03:22:37.899Z,0.00
2017-12-28T03:23:37.932Z,0.00
2017-12-28T03:24:37.975Z,0.00
2017-12-28T03:25:37.995Z,0.00
2017-12-28T03:26:38.030Z,0.00
2017-12-28T03:27:38.064Z,0.00
2017-12-28T03:28:38.096Z,0.00
2017-12-28T03:29:38.124Z,0.00
2017-12-28T03:30:38.160Z,0.00
2017-12-28T03:31:38.191Z,0.00
2017-12-28T03:32:38.224Z,0.00
2017-12-28T03:33:38.267Z,0.00
2017-12-28T03:34:38.288Z,0.00
2017-12-28T03:35:38.320Z,0.00
2017-12-28T03:36:38.358Z,0.00
2017-12-28T03:37:38.384Z,0.00
2017-12-28T03:38:38.415Z,0.00
2017-12-28T03:39:38.448Z,0.00
2017-12-28T03:40:38.482Z,0.00
2017-12-28T03:41:38.518Z,0.00
2017-12-28T03:42:38.546Z,0.00
2017-12-28T03:43:38.644Z,0.00
2017-12-28T03:44:38.608Z,0.00
2017-12-28T03:45:38.640Z,0.00
2017-12-28T03:46:38.676Z,0.00
2017-12-28T03:47:38.706Z,0.00
2017-12-28T03:48:38.738Z,0.00
2017-12-28T03:49:38.769Z,0.00
2017-12-28T03:50:38.869Z,0.00
2017-12-28T03:51:38.836Z,0.00
2017-12-28T03:52:38.866Z,0.00
2017-12-28T03:53:38.896Z,0.00
2017-12-28T03:54:38.931Z,0.00
2017-12-28T03:55:38.959Z,0.00
2017-12-28T03:56:38.992Z,0.00
2017-12-28T03:57:39.022Z,0.00
2017-12-28T03:58:39.058Z,0.00
2017-12-28T03:59:39.088Z,0.00
2017-12-28T04:00:39.128Z,0.00
2017-12-28T04:01:39.150Z,0.00
2017-12-28T04:02:39.179Z,0.00
2017-12-28T04:03:39.213Z,0.00
2017-12-28T04:04:39.248Z,0.00
2017-12-28T04:05:39.278Z,0.00
2017-12-28T04:06:39.307Z,0.00
2017-12-28T04:07:39.660Z,0.00
2017-12-28T04:08:39.368Z,0.00
2017-12-28T04:09:39.400Z,0.00
2017-12-28T04:10:39.436Z,0.00
2017-12-28T04:11:39.464Z,0.00
2017-12-28T04:12:39.493Z,0.00
2017-12-28T04:13:39.530Z,0.00
2017-12-28T04:14:39.560Z,0.00
2017-12-28T04:15:39.589Z,0.00
2017-12-28T04:16:39.619Z,0.00
2017-12-28T04:17:39.649Z,0.00
2017-12-28T04:18:39.694Z,0.00
2017-12-28T04:19:39.711Z,0.00
2017-12-28T04:20:39.742Z,0.00
2017-12-28T04:21:39.769Z,0.00
2017-12-28T04:22:39.802Z,0.00
2017-12-28T04:23:39.834Z,0.00
2017-12-28T04:24:39.869Z,0.00
2017-12-28T04:25:39.899Z,0.00
2017-12-28T04:26:39.925Z,0.00
2017-12-28T04:27:39.960Z,0.00
2017-12-28T04:28:40.039Z,0.00
2017-12-28T04:29:40.021Z,0.00
2017-12-28T04:30:40.050Z,0.00
2017-12-28T04:31:40.083Z,0.00
2017-12-28T04:32:40.110Z,0.00
2017-12-28T04:33:40.140Z,0.00
2017-12-28T04:34:40.174Z,0.00
2017-12-28T04:35:40.202Z,0.00
2017-12-28T04:36:40.236Z,0.00
2017-12-28T04:37:40.267Z,0.00
2017-12-28T04:38:40.300Z,0.00
2017-12-28T04:39:40.326Z,0.00
2017-12-28T04:40:40.361Z,0.00
2017-12-28T04:41:40.388Z,0.00
2017-12-28T04:42:40.420Z,0.00
2017-12-28T04:43:40.474Z,0.00
2017-12-28T04:44:40.482Z,0.00
2017-12-28T04:45:40.512Z,0.00
2017-12-28T04:46:40.543Z,0.00
2017-12-28T04:47:40.575Z,0.00
2017-12-28T04:48:40.605Z,0.00
2017-12-28T04:49:40.636Z,0.00
2017-12-28T04:50:40.681Z,0.00
2017-12-28T04:51:40.697Z,0.00
2017-12-28T04:52:40.726Z,0.00
2017-12-28T04:53:40.766Z,0.00
2017-12-28T04:54:40.791Z,0.00
2017-12-28T04:55:40.822Z,0.00
2017-12-28T04:56:40.853Z,0.00
2017-12-28T04:57:40.896Z,0.00
2017-12-28T04:58:40.912Z,0.00
2017-12-28T04:59:40.945Z,0.00
2017-12-28T05:00:40.975Z,0.00
2017-12-28T05:01:41.006Z,0.00
2017-12-28T05:02:41.036Z,0.00
2017-12-28T05:03:41.065Z,0.00
2017-12-28T05:04:41.098Z,0.00
2017-12-28T05:05:41.129Z,0.00
2017-12-28T05:06:41.159Z,0.00
2017-12-28T05:07:41.194Z,0.00
2017-12-28T05:08:41.223Z,0.00
2017-12-28T05:09:41.253Z,0.00
2017-12-28T05:10:41.284Z,0.00
2017-12-28T05:11:41.314Z,0.00
2017-12-28T05:12:41.344Z,0.00
2017-12-28T05:13:41.376Z,0.00
2017-12-28T05:14:41.517Z,0.00
2017-12-28T05:15:41.437Z,0.00
2017-12-28T05:16:41.468Z,0.00
2017-12-28T05:17:41.497Z,0.00
2017-12-28T05:18:41.531Z,0.00
2017-12-28T05:19:41.561Z,0.00
2017-12-28T05:20:41.591Z,0.00
2017-12-28T05:21:41.626Z,0.00
2017-12-28T05:22:41.653Z,0.00
2017-12-28T05:23:41.685Z,0.00
2017-12-28T05:24:41.717Z,0.00
2017-12-28T05:25:41.746Z,0.00
2017-12-28T05:26:41.820Z,0.00
2017-12-28T05:27:41.807Z,0.00
2017-12-28T05:28:41.842Z,0.00
2017-12-28T05:29:41.871Z,0.00
2017-12-28T05:30:41.904Z,0.00
2017-12-28T05:31:41.932Z,0.00
2017-12-28T05:32:41.963Z,0.00
2017-12-28T05:33:42.132Z,0.00
2017-12-28T05:34:42.027Z,0.00
2017-12-28T05:35:42.055Z,0.00
2017-12-28T05:36:42.089Z,0.00
2017-12-28T05:37:42.117Z,0.00
2017-12-28T05:38:42.147Z,0.00
2017-12-28T05:39:42.179Z,0.00
2017-12-28T05:40:42.209Z,0.00
2017-12-28T05:41:42.240Z,0.00
2017-12-28T05:42:42.272Z,0.00
2017-12-28T05:43:42.302Z,0.00
2017-12-28T05:44:42.338Z,0.00
2017-12-28T05:45:42.363Z,0.00
2017-12-28T05:46:42.399Z,0.00
2017-12-28T05:47:42.428Z,0.00
2017-12-28T05:48:42.459Z,0.00
2017-12-28T05:49:42.491Z,0.00
2017-12-28T05:50:42.863Z,0.00
2017-12-28T05:51:42.550Z,0.00
2017-12-28T05:52:42.580Z,0.00
2017-12-28T05:53:42.612Z,0.00
2017-12-28T05:54:42.641Z,0.00
2017-12-28T05:55:42.675Z,0.00
2017-12-28T05:56:42.704Z,0.00
2017-12-28T05:57:42.829Z,0.00
2017-12-28T05:58:42.771Z,0.00
2017-12-28T05:59:42.801Z,0.00
2017-12-28T06:00:42.829Z,0.00
2017-12-28T06:01:42.861Z,0.00
2017-12-28T06:02:42.890Z,0.00
2017-12-28T06:03:42.922Z,0.00
2017-12-28T06:04:42.953Z,0.00
2017-12-28T06:05:42.983Z,0.00
2017-12-28T06:06:43.013Z,0.00
2017-12-28T06:07:43.046Z,0.00
2017-12-28T06:08:43.076Z,0.00
2017-12-28T06:09:43.107Z,0.00
2017-12-28T06:10:43.140Z,0.00
2017-12-28T06:11:43.179Z,0.00
2017-12-28T06:12:43.200Z,0.00
2017-12-28T06:13:43.236Z,0.00
2017-12-28T06:14:43.262Z,0.00
2017-12-28T06:15:43.296Z,0.00
2017-12-28T06:16:43.324Z,0.00
2017-12-28T06:17:43.353Z,0.00
2017-12-28T06:18:43.387Z,0.00
2017-12-28T06:19:43.427Z,0.00
2017-12-28T06:20:43.446Z,0.00
2017-12-28T06:21:43.477Z,0.00
2017-12-28T06:22:43.511Z,0.00
2017-12-28T06:23:43.541Z,0.00
2017-12-28T06:24:43.571Z,0.00
2017-12-28T06:25:43.605Z,0.00
2017-12-28T06:26:43.656Z,0.00
2017-12-28T06:27:43.666Z,0.00
2017-12-28T06:28:43.695Z,0.00
2017-12-28T06:29:43.726Z,0.00
2017-12-28T06:30:43.766Z,0.00
2017-12-28T06:31:43.787Z,0.00
2017-12-28T06:32:43.818Z,0.00
2017-12-28T06:33:43.893Z,0.00
2017-12-28T06:34:43.882Z,0.00
2017-12-28T06:35:43.913Z,0.00
2017-12-28T06:36:43.944Z,0.00
2017-12-28T06:37:43.974Z,0.00
2017-12-28T06:38:44.006Z,0.00
2017-12-28T06:39:44.036Z,0.00
2017-12-28T06:40:44.066Z,0.00
2017-12-28T06:41:44.099Z,0.00
2017-12-28T06:42:44.131Z,0.00
2017-12-28T06:43:44.165Z,0.00
2017-12-28T06:44:44.194Z,0.00
2017-12-28T06:45:44.223Z,0.00
2017-12-28T06:46:44.255Z,0.00
2017-12-28T06:47:44.284Z,0.00
2017-12-28T06:48:44.315Z,0.00
2017-12-28T06:49:44.345Z,0.00
2017-12-28T06:50:44.431Z,0.00
2017-12-28T06:51:44.409Z,0.00
2017-12-28T06:52:44.442Z,0.00
2017-12-28T06:53:44.470Z,4.00
2017-12-28T06:54:44.501Z,4.00
2017-12-28T06:55:44.536Z,4.00
2017-12-28T06:56:44.565Z,4.00
2017-12-28T06:57:44.936Z,0.00
2017-12-28T06:58:44.624Z,4.00
2017-12-28T06:59:44.659Z,4.00
2017-12-28T07:00:44.685Z,4.00
2017-12-28T07:01:44.715Z,4.00
2017-12-28T07:02:44.751Z,8.00
2017-12-28T07:03:44.778Z,12.00
2017-12-28T07:04:44.808Z,8.00
2017-12-28T07:05:44.838Z,8.00
2017-12-28T07:06:44.871Z,16.00
2017-12-28T07:07:44.907Z,20.00
2017-12-28T07:08:44.937Z,24.00
2017-12-28T07:09:45.032Z,32.00
2017-12-28T07:10:44.997Z,36.00
2017-12-28T07:11:45.028Z,36.00
2017-12-28T07:12:45.060Z,36.00
2017-12-28T07:13:45.092Z,48.00
2017-12-28T07:14:45.120Z,56.00
2017-12-28T07:15:45.153Z,64.00
2017-12-28T07:16:45.183Z,72.00
2017-12-28T07:17:45.214Z,80.00
2017-12-28T07:18:45.243Z,96.00
2017-12-28T07:19:45.290Z,104.00
2017-12-28T07:20:45.307Z,116.00
2017-12-28T07:21:45.339Z,132.00
2017-12-28T07:22:45.380Z,140.00
2017-12-28T07:23:45.407Z,156.00
2017-12-28T07:24:45.433Z,168.00
2017-12-28T07:25:45.461Z,180.00
2017-12-28T07:26:45.499Z,200.00
2017-12-28T07:27:45.523Z,220.00
2017-12-28T07:28:45.558Z,236.00
2017-12-28T07:29:45.585Z,244.00
2017-12-28T07:30:45.622Z,248.00
2017-12-28T07:31:45.644Z,236.00
2017-12-28T07:32:45.684Z,228.00
2017-12-28T07:33:46.028Z,224.00
2017-12-28T07:34:45.741Z,216.00
2017-12-28T07:35:45.770Z,196.00
2017-12-28T07:36:45.802Z,200.00
2017-12-28T07:37:45.839Z,204.00
2017-12-28T07:38:45.870Z,224.00
2017-12-28T07:39:45.892Z,256.00
2017-12-28T07:40:45.932Z,276.00
2017-12-28T07:41:45.954Z,284.00
2017-12-28T07:42:45.991Z,288.00
2017-12-28T07:43:46.020Z,300.00
2017-12-28T07:44:46.048Z,316.00
2017-12-28T07:45:46.084Z,304.00
2017-12-28T07:46:46.117Z,300.00
2017-12-28T07:47:46.150Z,300.00
2017-12-28T07:48:46.174Z,348.00
2017-12-28T07:49:46.213Z,408.00
2017-12-28T07:50:46.277Z,492.00
2017-12-28T07:51:46.266Z,540.00
2017-12-28T07:52:46.302Z,656.00
2017-12-28T07:53:46.328Z,624.00
2017-12-28T07:54:46.361Z,580.00
2017-12-28T07:55:46.395Z,556.00
2017-12-28T07:56:46.422Z,644.00
2017-12-28T07:57:46.451Z,672.00
2017-12-28T07:58:46.483Z,656.00
2017-12-28T07:59:46.518Z,656.00
2017-12-28T08:00:46.544Z,796.00
2017-12-28T08:01:46.586Z,884.00
2017-12-28T08:02:46.608Z,812.00
2017-12-28T08:03:46.644Z,700.00
2017-12-28T08:04:46.675Z,784.00
2017-12-28T08:05:46.771Z,740.00
2017-12-28T08:06:46.738Z,680.00
2017-12-28T08:07:46.764Z,672.00
2017-12-28T08:08:46.796Z,844.00
2017-12-28T08:09:46.871Z,848.00
2017-12-28T08:10:46.868Z,964.00
2017-12-28T08:11:46.895Z,1192.00
2017-12-28T08:12:46.985Z,1224.00
2017-12-28T08:13:46.959Z,1276.00
2017-12-28T08:14:47.045Z,1368.00
2017-12-28T08:15:47.082Z,1544.00
2017-12-28T08:16:47.253Z,1580.00
2017-12-28T08:17:47.079Z,1560.00
2017-12-28T08:18:47.114Z,1644.00
2017-12-28T08:19:47.144Z,1616.00
2017-12-28T08:20:47.175Z,1444.00
2017-12-28T08:21:47.203Z,1404.00
2017-12-28T08:22:47.237Z,1300.00
2017-12-28T08:23:47.275Z,1112.00
2017-12-28T08:24:47.300Z,976.00
2017-12-28T08:25:47.334Z,1000.00
2017-12-28T08:26:47.368Z,1144.00
2017-12-28T08:27:47.396Z,928.00
2017-12-28T08:28:47.432Z,860.00
2017-12-28T08:29:47.467Z,1012.00
2017-12-28T08:30:47.495Z,1104.00
2017-12-28T08:31:47.538Z,936.00
2017-12-28T08:32:47.560Z,908.00
2017-12-28T08:33:47.658Z,828.00
2017-12-28T08:34:47.617Z,688.00
2017-12-28T08:35:47.647Z,612.00
2017-12-28T08:36:47.691Z,584.00
2017-12-28T08:37:47.741Z,644.00
2017-12-28T08:38:47.748Z,688.00
2017-12-28T08:39:47.775Z,624.00
2017-12-28T08:40:47.813Z,588.00
2017-12-28T08:41:47.854Z,652.00
2017-12-28T08:42:47.882Z,812.00
2017-12-28T08:43:47.907Z,928.00
2017-12-28T08:44:47.940Z,1420.00
2017-12-28T08:45:48.031Z,1652.00
2017-12-28T08:46:47.995Z,2236.00
2017-12-28T08:47:48.039Z,2472.00
2017-12-28T08:48:48.097Z,2316.00
2017-12-28T08:49:48.099Z,2096.00
2017-12-28T08:50:48.124Z,2092.00
2017-12-28T08:51:48.153Z,1736.00
2017-12-28T08:52:48.251Z,1652.00
2017-12-28T08:53:48.215Z,1752.00
2017-12-28T08:54:48.249Z,2304.00
2017-12-28T08:55:48.292Z,2580.00
2017-12-28T08:56:48.310Z,2440.00
2017-12-28T08:57:48.343Z,2204.00
2017-12-28T08:58:48.376Z,2156.00
2017-12-28T08:59:48.410Z,2200.00
2017-12-28T09:00:48.438Z,2340.00
2017-12-28T09:01:48.468Z,2368.00
2017-12-28T09:02:48.501Z,2760.00
2017-12-28T09:03:48.531Z,2884.00
2017-12-28T09:04:48.587Z,2528.00
2017-12-28T09:05:48.595Z,1812.00
2017-12-28T09:06:48.630Z,1348.00
2017-12-28T09:07:48.660Z,1152.00
2017-12-28T09:08:48.688Z,1188.00
2017-12-28T09:09:48.744Z,1376.00
2017-12-28T09:10:48.753Z,1256.00
2017-12-28T09:11:48.795Z,1328.00
2017-12-28T09:12:48.817Z,1448.00
2017-12-28T09:13:48.851Z,1784.00
2017-12-28T09:14:48.893Z,2012.00
2017-12-28T09:15:48.935Z,2080.00
2017-12-28T09:16:49.077Z,1748.00
2017-12-28T09:17:48.972Z,1544.00
2017-12-28T09:18:49.014Z,2108.00
2017-12-28T09:19:49.044Z,2288.00
2017-12-28T09:20:49.298Z,2780.00
2017-12-28T09:21:49.103Z,3376.00
2017-12-28T09:22:49.132Z,3296.00
2017-12-28T09:23:49.277Z,3352.00
2017-12-28T09:24:49.206Z,3556.00
2017-12-28T09:25:49.225Z,3580.00
2017-12-28T09:26:49.257Z,3580.00
2017-12-28T09:27:49.360Z,3568.00
2017-12-28T09:28:49.325Z,3352.00
2017-12-28T09:29:49.553Z,3252.00
2017-12-28T09:30:49.416Z,3464.00
2017-12-28T09:31:49.420Z,3952.00
2017-12-28T09:32:49.653Z,4080.00
2017-12-28T09:33:49.567Z,3580.00
2017-12-28T09:34:49.536Z,3624.00
2017-12-28T09:35:49.746Z,3572.00
2017-12-28T09:36:49.575Z,3116.00
2017-12-28T09:37:49.610Z,3044.00
2017-12-28T09:38:49.693Z,3112.00
2017-12-28T09:39:49.872Z,2912.00
2017-12-28T09:40:49.708Z,2888.00
2017-12-28T09:41:49.745Z,3116.00
2017-12-28T09:42:49.763Z,2696.00
2017-12-28T09:43:49.796Z,2812.00
2017-12-28T09:44:49.829Z,2892.00
2017-12-28T09:45:49.900Z,2524.00
2017-12-28T09:46:49.901Z,2360.00
2017-12-28T09:48:50.011Z,2236.00
2017-12-28T09:49:49.989Z,1912.00
2017-12-28T09:50:50.223Z,1840.00
2017-12-28T09:51:50.055Z,2512.00
2017-12-28T09:52:50.189Z,2644.00
2017-12-28T09:53:50.116Z,2088.00
2017-12-28T09:54:50.147Z,1928.00
2017-12-28T09:55:50.239Z,1776.00
2017-12-28T09:56:50.216Z,1588.00
2017-12-28T09:57:50.246Z,1520.00
2017-12-28T09:58:50.332Z,1416.00
2017-12-28T09:59:50.309Z,1384.00
2017-12-28T10:00:50.341Z,1424.00
2017-12-28T10:01:50.375Z,1644.00
2017-12-28T10:02:50.611Z,1944.00
2017-12-28T10:03:50.438Z,2336.00
2017-12-28T10:04:50.473Z,2772.00
2017-12-28T10:05:50.501Z,2396.00
2017-12-28T10:06:50.538Z,2176.00
2017-12-28T10:07:50.566Z,2252.00
2017-12-28T10:08:50.596Z,2020.00
2017-12-28T10:09:50.686Z,1920.00
2017-12-28T10:10:50.661Z,1876.00
2017-12-28T10:11:50.696Z,1604.00
2017-12-28T10:12:50.725Z,1524.00
2017-12-28T10:13:50.757Z,1556.00
2017-12-28T10:14:50.790Z,1400.00
2017-12-28T10:15:51.027Z,1220.00
2017-12-28T10:16:50.925Z,1276.00
2017-12-28T10:17:50.888Z,1368.00
2017-12-28T10:18:50.917Z,1440.00
2017-12-28T10:19:50.950Z,1732.00
2017-12-28T10:20:50.981Z,1960.00
2017-12-28T10:21:51.013Z,2048.00
2017-12-28T10:22:51.063Z,1772.00
2017-12-28T10:23:51.087Z,1720.00
2017-12-28T10:24:51.106Z,1940.00
2017-12-28T10:25:51.355Z,2296.00
2017-12-28T10:26:51.184Z,2236.00
2017-12-28T10:27:51.210Z,2392.00
2017-12-28T10:28:51.329Z,2560.00
2017-12-28T10:29:51.537Z,2992.00
2017-12-28T10:30:51.307Z,3576.00
2017-12-28T10:31:51.336Z,3348.00
2017-12-28T10:32:51.370Z,2952.00
2017-12-28T10:33:51.399Z,2784.00
2017-12-28T10:34:51.429Z,2528.00
2017-12-28T10:35:51.518Z,2244.00
2017-12-28T10:36:51.493Z,2088.00
2017-12-28T10:37:51.524Z,2088.00
2017-12-28T10:38:51.960Z,2416.00
2017-12-28T10:39:51.589Z,3004.00
2017-12-28T10:40:51.702Z,3488.00
2017-12-28T10:41:51.649Z,3392.00
2017-12-28T10:42:51.685Z,3340.00
2017-12-28T10:43:51.715Z,4064.00
2017-12-28T10:44:51.757Z,4448.00
2017-12-28T10:45:51.783Z,4264.00
2017-12-28T10:46:51.810Z,4944.00
2017-12-28T10:47:51.856Z,5476.00
2017-12-28T10:48:51.882Z,5788.00
2017-12-28T10:49:51.902Z,5956.00
2017-12-28T10:50:51.935Z,5800.00
2017-12-28T10:51:51.968Z,5428.00
2017-12-28T10:52:52.058Z,5216.00
2017-12-28T10:53:52.032Z,4780.00
2017-12-28T10:54:52.069Z,4584.00
2017-12-28T10:55:52.307Z,5308.00
2017-12-28T10:56:52.132Z,6036.00
2017-12-28T10:57:52.164Z,5864.00
2017-12-28T10:58:52.191Z,5448.00
2017-12-28T10:59:52.633Z,5524.00
2017-12-28T11:01:52.302Z,4848.00
2017-12-28T11:02:52.523Z,4544.00
2017-12-28T11:03:52.353Z,4644.00
2017-12-28T11:04:52.383Z,4644.00
2017-12-28T11:05:52.419Z,4500.00
2017-12-28T11:06:52.448Z,3964.00
2017-12-28T11:07:52.698Z,3912.00
2017-12-28T11:08:52.513Z,4232.00
2017-12-28T11:09:52.544Z,4916.00
2017-12-28T11:10:52.577Z,5244.00
2017-12-28T11:11:52.636Z,5160.00
2017-12-28T11:12:52.648Z,5112.00
2017-12-28T11:13:52.680Z,5288.00
2017-12-28T11:14:52.742Z,5508.00
2017-12-28T11:15:52.736Z,5448.00
2017-12-28T11:16:52.769Z,5508.00
2017-12-28T11:17:52.855Z,5624.00
2017-12-28T11:18:52.885Z,5344.00
2017-12-28T11:19:52.863Z,4900.00
2017-12-28T11:20:52.909Z,4648.00
2017-12-28T11:21:52.933Z,4532.00
2017-12-28T11:22:52.964Z,4092.00
2017-12-28T11:23:52.994Z,3572.00
2017-12-28T11:24:53.244Z,3508.00
2017-12-28T11:25:53.056Z,3160.00
2017-12-28T11:26:53.145Z,2828.00
2017-12-28T11:27:53.119Z,2472.00
2017-12-28T11:28:53.164Z,2080.00
2017-12-28T11:29:53.185Z,1932.00
2017-12-28T11:30:53.217Z,1976.00
2017-12-28T11:31:53.459Z,2024.00
2017-12-28T11:32:53.285Z,2316.00
2017-12-28T11:33:53.314Z,3176.00
2017-12-28T11:34:53.361Z,3560.00
2017-12-28T11:35:53.388Z,3488.00
2017-12-28T11:36:53.410Z,3152.00
2017-12-28T11:38:53.568Z,2712.00
2017-12-28T11:39:53.509Z,2820.00
2017-12-28T11:40:53.597Z,2372.00
2017-12-28T11:41:53.576Z,1864.00
2017-12-28T11:42:53.616Z,1592.00
2017-12-28T11:43:53.632Z,1608.00
2017-12-28T11:44:53.681Z,1560.00
2017-12-28T11:45:54.023Z,1364.00
2017-12-28T11:46:53.737Z,1308.00
2017-12-28T11:47:53.764Z,1412.00
2017-12-28T11:48:53.797Z,1268.00
2017-12-28T11:49:54.086Z,1356.00
2017-12-28T11:50:53.865Z,1284.00
2017-12-28T11:52:53.920Z,1112.00
2017-12-28T11:53:53.951Z,1212.00
2017-12-28T11:54:53.991Z,1528.00
2017-12-28T11:55:54.018Z,1868.00
2017-12-28T11:56:54.049Z,1884.00
2017-12-28T11:57:54.181Z,1828.00
2017-12-28T11:59:54.144Z,2108.00
2017-12-28T12:00:54.179Z,2584.00
2017-12-28T12:01:54.210Z,2920.00
2017-12-28T12:02:54.241Z,3580.00
2017-12-28T12:03:54.281Z,4072.00
2017-12-28T12:04:54.301Z,4308.00
2017-12-28T12:05:54.343Z,4676.00
2017-12-28T12:06:54.394Z,5144.00
2017-12-28T12:07:54.404Z,5412.00
2017-12-28T12:08:54.430Z,5392.00
2017-12-28T12:09:54.461Z,5712.00
2017-12-28T12:10:54.499Z,6132.00
2017-12-28T12:11:54.534Z,6388.00
2017-12-28T12:12:54.560Z,6600.00
2017-12-28T12:13:54.589Z,6676.00
2017-12-28T12:14:54.694Z,6088.00
2017-12-28T12:15:54.661Z,5780.00
2017-12-28T12:16:54.752Z,5280.00
2017-12-28T12:17:54.720Z,4880.00
2017-12-28T12:18:54.761Z,4728.00
2017-12-28T12:19:54.786Z,4988.00
2017-12-28T12:20:54.814Z,4852.00
2017-12-28T12:21:54.899Z,4444.00
2017-12-28T12:22:54.881Z,3960.00
2017-12-28T12:23:54.911Z,3708.00
2017-12-28T12:24:55.152Z,3580.00
2017-12-28T12:25:54.973Z,3508.00
2017-12-28T12:26:55.210Z,3480.00
2017-12-28T12:27:55.041Z,3492.00
2017-12-28T12:28:55.074Z,3560.00
2017-12-28T12:29:55.109Z,3648.00
2017-12-28T12:30:55.343Z,3832.00
2017-12-28T12:31:55.186Z,4040.00
2017-12-28T12:32:55.200Z,4284.00
2017-12-28T12:33:55.246Z,4668.00
2017-12-28T12:34:55.265Z,5148.00
2017-12-28T12:35:55.297Z,5320.00
2017-12-28T12:36:55.328Z,5200.00
2017-12-28T12:37:55.366Z,5408.00
2017-12-28T12:38:55.423Z,5232.00
2017-12-28T12:39:55.422Z,5228.00
2017-12-28T12:40:55.452Z,5144.00
2017-12-28T12:41:55.485Z,4856.00
2017-12-28T12:42:55.533Z,4572.00
2017-12-28T12:43:55.552Z,4716.00
2017-12-28T12:44:55.583Z,4652.00
2017-12-28T12:45:55.616Z,4560.00
2017-12-28T12:46:55.650Z,4676.00
2017-12-28T12:47:55.682Z,4976.00
2017-12-28T12:48:55.713Z,5252.00
2017-12-28T12:49:55.743Z,5556.00
2017-12-28T12:50:55.797Z,5596.00
2017-12-28T12:51:56.016Z,5324.00
2017-12-28T12:52:55.845Z,5084.00